aviador You're here:

LKCV Decoded Metar

CASLAV in CZECH REPUBLIC
Report Time2017-12-11 22:00:00
UTC Time2017-12-11 22:59:38
Flight Rules vfr VFR
Wind150° at 19 kt
W.Decomp.*RWY 14: 18.9 kt HW 2.3 kt RCW
W.Rank150° ranks 4
Current wind is above 150° avg. (6.5)
Visibility9999 m
Phenomena:N/A
Clouds:N/A
Expected CloudBase > 1,600 ft AGL from Temp-Dew spread
CeilingNone
Temp09°C (ISA -4)
Dew Point05°C (76% RH)
AAT1.0°C
QNH0987 hPa
Density Alt1,280 ft
Elevation794 ft
Report Wrong Elevation
Raw Report
LKCV 112200Z 15019KT CAVOK 09/05 Q0987 NOSIG RMK BLU+ BLU=

Extra information for LKCV:More info

Metar Taf Metar & Taf Last 4 Metars F.Rules Stats Wind Profile Meteogram Temp Stats Airport Information Weather charts Add Link Nearby VenuesMetar ALERT Operation Metar Decoded Social comments